createdAt,value
2022-10-17T00:00:01.382Z,10.27
2022-10-17T00:01:32.795Z,9.40
2022-10-17T00:03:04.265Z,11.25
2022-10-17T00:04:35.671Z,11.35
2022-10-17T00:06:07.080Z,11.50
2022-10-17T00:07:38.775Z,9.60
2022-10-17T00:09:10.082Z,11.97
2022-10-17T00:10:41.512Z,11.68
2022-10-17T00:12:12.994Z,9.58
2022-10-17T00:13:45.423Z,11.01
2022-10-17T00:15:16.829Z,9.75
2022-10-17T00:16:48.807Z,9.90
2022-10-17T00:18:20.328Z,10.51
2022-10-17T00:19:51.708Z,11.56
2022-10-17T00:21:23.220Z,13.66
2022-10-17T00:22:54.516Z,12.50
2022-10-17T00:24:26.203Z,10.58
2022-10-17T00:25:57.644Z,11.48
2022-10-17T00:27:29.434Z,10.47
2022-10-17T00:29:01.619Z,11.04
2022-10-17T00:30:32.984Z,8.63
2022-10-17T00:32:04.255Z,11.35
2022-10-17T00:33:35.603Z,10.70
2022-10-17T00:35:07.169Z,12.40
2022-10-17T00:36:38.473Z,13.71
2022-10-17T00:38:09.808Z,12.40
2022-10-17T00:39:41.192Z,10.88
2022-10-17T00:41:12.644Z,10.92
2022-10-17T00:42:44.109Z,11.67
2022-10-17T00:44:15.499Z,10.64
2022-10-17T00:45:46.906Z,10.43
2022-10-17T00:47:18.294Z,11.24
2022-10-17T00:48:50.263Z,11.73
2022-10-17T00:50:21.574Z,12.23
2022-10-17T00:51:52.870Z,13.13
2022-10-17T00:53:24.161Z,12.77
2022-10-17T00:54:56.037Z,9.28
2022-10-17T00:56:27.534Z,10.41
2022-10-17T00:57:58.863Z,10.39
2022-10-17T00:59:30.322Z,11.27
2022-10-17T01:01:01.682Z,11.52
2022-10-17T01:02:38.148Z,14.22
2022-10-17T01:04:09.642Z,12.09
2022-10-17T01:05:41.160Z,10.86
2022-10-17T01:07:12.627Z,12.67
2022-10-17T01:08:44.239Z,9.08
2022-10-17T01:10:16.765Z,11.48
2022-10-17T01:11:48.137Z,12.87
2022-10-17T01:13:19.817Z,10.83
2022-10-17T01:14:51.209Z,11.47
2022-10-17T01:16:22.973Z,12.84
2022-10-17T01:17:54.759Z,12.24
2022-10-17T01:19:26.379Z,11.34
2022-10-17T01:20:57.910Z,13.22
2022-10-17T01:22:29.828Z,11.97
2022-10-17T01:24:01.374Z,12.70
2022-10-17T01:25:32.875Z,12.69
2022-10-17T01:27:04.387Z,11.21
2022-10-17T01:28:35.908Z,12.61
2022-10-17T01:30:07.417Z,11.53
2022-10-17T01:31:38.861Z,12.52
2022-10-17T01:33:10.197Z,13.86
2022-10-17T01:34:46.616Z,11.48
2022-10-17T01:36:17.987Z,11.08
2022-10-17T01:37:54.333Z,13.07
2022-10-17T01:39:28.046Z,9.63
2022-10-17T01:41:01.713Z,11.00
2022-10-17T01:42:33.091Z,12.49
2022-10-17T01:44:04.344Z,11.24
2022-10-17T01:45:45.701Z,13.16
2022-10-17T01:47:17.005Z,10.86
2022-10-17T01:48:48.302Z,11.85
2022-10-17T01:50:19.805Z,10.19
2022-10-17T01:51:51.196Z,11.54
2022-10-17T01:53:22.576Z,11.72
2022-10-17T01:54:53.879Z,10.76
2022-10-17T01:56:26.108Z,11.19
2022-10-17T01:57:57.463Z,11.98
2022-10-17T01:59:28.945Z,11.64
2022-10-17T02:01:00.592Z,16.09
2022-10-17T02:02:33.119Z,8.63
2022-10-17T02:04:04.393Z,9.52
2022-10-17T02:05:35.808Z,11.20
2022-10-17T02:07:07.351Z,11.66
2022-10-17T02:08:38.698Z,10.53
2022-10-17T02:10:10.367Z,9.08
2022-10-17T02:11:46.725Z,10.26
2022-10-17T02:13:18.331Z,12.08
2022-10-17T02:14:50.335Z,11.73
2022-10-17T02:16:21.729Z,12.11
2022-10-17T02:17:53.098Z,9.43
2022-10-17T02:19:24.411Z,9.46
2022-10-17T02:20:55.934Z,9.30
2022-10-17T02:22:27.303Z,9.87
2022-10-17T02:23:58.617Z,11.05
2022-10-17T02:25:31.306Z,9.61
2022-10-17T02:27:02.759Z,10.97
2022-10-17T02:28:34.237Z,8.73
2022-10-17T02:30:05.572Z,10.24
2022-10-17T02:31:37.081Z,9.01
2022-10-17T02:33:08.375Z,9.85
2022-10-17T02:34:39.712Z,10.61
2022-10-17T02:36:11.148Z,9.01
2022-10-17T02:37:42.490Z,9.77
2022-10-17T02:39:18.815Z,8.81
2022-10-17T02:40:50.181Z,8.70
2022-10-17T02:42:21.552Z,10.48
2022-10-17T02:43:52.969Z,10.46
2022-10-17T02:45:24.283Z,8.41
2022-10-17T02:46:55.718Z,8.34
2022-10-17T02:48:27.082Z,10.16
2022-10-17T02:49:58.647Z,9.91
2022-10-17T02:51:30.146Z,10.02
2022-10-17T02:53:02.071Z,10.24
2022-10-17T02:54:33.793Z,9.31
2022-10-17T02:56:06.176Z,8.91
2022-10-17T02:57:37.685Z,10.00
2022-10-17T02:59:09.000Z,9.23
2022-10-17T03:00:40.398Z,9.62
2022-10-17T03:02:11.751Z,10.46
2022-10-17T03:03:43.106Z,9.26
2022-10-17T03:05:14.617Z,10.89
2022-10-17T03:06:46.648Z,8.21
2022-10-17T03:08:18.243Z,9.34
2022-10-17T03:09:49.578Z,12.43
2022-10-17T03:11:21.092Z,12.43
2022-10-17T03:12:52.537Z,10.35
2022-10-17T03:14:24.044Z,8.38
2022-10-17T03:15:55.564Z,9.18
2022-10-17T03:17:27.835Z,9.99
2022-10-17T03:18:59.628Z,8.02
2022-10-17T03:20:31.075Z,10.40
2022-10-17T03:22:02.446Z,10.04
2022-10-17T03:23:33.905Z,13.14
2022-10-17T03:25:05.384Z,8.71
2022-10-17T03:26:37.167Z,8.27
2022-10-17T03:28:08.811Z,10.46
2022-10-17T03:29:40.124Z,9.37
2022-10-17T03:31:16.771Z,11.06
2022-10-17T03:32:48.253Z,9.58
2022-10-17T03:34:19.612Z,8.72
2022-10-17T03:35:51.283Z,9.59
2022-10-17T03:37:23.020Z,9.66
2022-10-17T03:38:54.554Z,9.27
2022-10-17T03:40:25.862Z,10.38
2022-10-17T03:41:57.204Z,9.40
2022-10-17T03:43:28.600Z,9.98
2022-10-17T03:45:00.044Z,9.86
2022-10-17T03:46:31.457Z,8.98
2022-10-17T03:48:02.825Z,8.07
2022-10-17T03:49:34.145Z,7.13
2022-10-17T03:51:05.544Z,7.99
2022-10-17T03:52:37.075Z,8.42
2022-10-17T03:54:08.464Z,8.49
2022-10-17T03:55:46.217Z,8.61
2022-10-17T03:57:17.633Z,9.41
2022-10-17T03:58:49.147Z,8.24
2022-10-17T04:00:20.524Z,9.09
2022-10-17T04:01:51.938Z,8.69
2022-10-17T04:03:23.472Z,8.99
2022-10-17T04:04:55.052Z,8.28
2022-10-17T04:06:26.533Z,9.56
2022-10-17T04:07:59.853Z,11.08
2022-10-17T04:09:34.254Z,10.22
2022-10-17T04:11:05.566Z,8.77
2022-10-17T04:12:37.082Z,8.87
2022-10-17T04:14:08.356Z,8.92
2022-10-17T04:15:40.108Z,7.40
2022-10-17T04:17:11.500Z,8.24
2022-10-17T04:18:42.997Z,9.22
2022-10-17T04:20:14.477Z,8.83
2022-10-17T04:21:46.180Z,9.23
2022-10-17T04:23:18.991Z,9.12
2022-10-17T04:24:50.421Z,7.73
2022-10-17T04:26:21.929Z,9.72
2022-10-17T04:27:53.498Z,7.53
2022-10-17T04:29:24.966Z,8.61
2022-10-17T04:30:56.360Z,8.96
2022-10-17T04:32:28.306Z,8.43
2022-10-17T04:34:00.048Z,6.96
2022-10-17T04:35:31.355Z,7.12
2022-10-17T04:37:03.044Z,8.13
2022-10-17T04:38:34.411Z,6.88
2022-10-17T04:40:05.858Z,5.99
2022-10-17T04:41:37.234Z,8.44
2022-10-17T04:43:08.731Z,7.73
2022-10-17T04:44:40.393Z,7.28
2022-10-17T04:46:12.087Z,8.72
2022-10-17T04:47:43.529Z,7.68
2022-10-17T04:49:15.034Z,8.69
2022-10-17T04:50:46.614Z,6.40
2022-10-17T04:52:18.324Z,7.84
2022-10-17T04:53:49.727Z,9.12
2022-10-17T04:55:21.346Z,7.81
2022-10-17T04:56:52.942Z,6.03
2022-10-17T04:58:24.687Z,9.19
2022-10-17T04:59:56.374Z,8.22
2022-10-17T05:01:28.331Z,8.32
2022-10-17T05:03:05.010Z,9.56
2022-10-17T05:04:36.803Z,7.86
2022-10-17T05:06:08.719Z,7.73
2022-10-17T05:07:40.552Z,7.31
2022-10-17T05:09:12.183Z,9.67
2022-10-17T05:10:43.619Z,7.65
2022-10-17T05:12:15.136Z,6.58
2022-10-17T05:13:46.557Z,7.36
2022-10-17T05:15:18.098Z,6.96
2022-10-17T05:16:49.469Z,11.40
2022-10-17T05:18:21.171Z,8.23
2022-10-17T05:19:52.593Z,8.73
2022-10-17T05:21:24.205Z,10.39
2022-10-17T05:22:55.742Z,8.33
2022-10-17T05:24:27.164Z,7.78
2022-10-17T05:26:03.796Z,7.23
2022-10-17T05:27:35.919Z,8.96
2022-10-17T05:29:07.609Z,9.03
2022-10-17T05:30:38.977Z,10.67
2022-10-17T05:32:10.632Z,8.61
2022-10-17T05:33:42.025Z,7.54
2022-10-17T05:35:18.699Z,9.00
2022-10-17T05:36:50.110Z,11.17
2022-10-17T05:38:21.690Z,8.72
2022-10-17T05:39:53.455Z,9.31
2022-10-17T05:41:24.863Z,10.14
2022-10-17T05:42:56.263Z,8.55
2022-10-17T05:44:27.669Z,12.84
2022-10-17T05:45:59.009Z,10.92
2022-10-17T05:47:35.430Z,7.68
2022-10-17T05:49:14.800Z,6.92
2022-10-17T05:50:57.174Z,8.16
2022-10-17T05:52:29.050Z,9.60
2022-10-17T05:54:00.871Z,8.93
2022-10-17T05:55:32.188Z,8.82
2022-10-17T05:57:03.779Z,7.29
2022-10-17T05:58:51.605Z,8.10
2022-10-17T06:00:24.790Z,8.15
2022-10-17T06:01:56.287Z,8.84
2022-10-17T06:03:27.845Z,10.75
2022-10-17T06:04:59.230Z,7.99
2022-10-17T06:06:32.047Z,9.10
2022-10-17T06:08:03.462Z,10.14
2022-10-17T06:09:35.158Z,6.45
2022-10-17T06:11:09.910Z,8.76
2022-10-17T06:12:42.004Z,6.10
2022-10-17T06:14:13.287Z,8.22
2022-10-17T06:15:44.729Z,8.86
2022-10-17T06:17:16.526Z,8.84
2022-10-17T06:20:21.008Z,7.62
2022-10-17T06:21:52.405Z,7.04
2022-10-17T06:23:52.009Z,7.90
2022-10-17T06:25:23.351Z,11.18
2022-10-17T06:26:54.857Z,8.79
2022-10-17T06:28:26.410Z,7.31
2022-10-17T06:29:57.805Z,8.71
2022-10-17T06:31:29.345Z,9.82
2022-10-17T06:33:00.835Z,9.26
2022-10-17T06:34:37.384Z,9.37
2022-10-17T06:36:08.835Z,7.64
2022-10-17T06:37:40.523Z,7.82
2022-10-17T06:39:12.202Z,9.15
2022-10-17T06:40:43.629Z,9.17
2022-10-17T06:42:15.118Z,7.19
2022-10-17T06:43:46.529Z,7.18
2022-10-17T06:45:17.829Z,7.17
2022-10-17T06:46:49.155Z,7.74
2022-10-17T06:48:20.570Z,8.09
2022-10-17T06:49:52.164Z,8.41
2022-10-17T06:51:28.590Z,8.45
2022-10-17T06:52:59.997Z,7.25
2022-10-17T06:54:31.402Z,6.87
2022-10-17T06:56:02.943Z,7.42
2022-10-17T06:57:34.330Z,8.88
2022-10-17T06:59:05.672Z,6.97
2022-10-17T07:00:37.253Z,6.37
2022-10-17T07:02:08.717Z,7.28
2022-10-17T07:03:40.071Z,7.89
2022-10-17T07:05:16.580Z,8.03
2022-10-17T07:06:47.937Z,11.11
2022-10-17T07:08:19.320Z,10.92
2022-10-17T07:09:50.938Z,8.31
2022-10-17T07:11:22.530Z,8.90
2022-10-17T07:13:12.149Z,6.60
2022-10-17T07:14:43.502Z,10.42
2022-10-17T07:16:40.419Z,8.62
2022-10-17T07:18:11.808Z,8.32
2022-10-17T07:19:43.411Z,10.46
2022-10-17T07:21:14.929Z,10.28
2022-10-17T07:22:46.459Z,9.31
2022-10-17T07:24:18.149Z,9.45
2022-10-17T07:25:49.471Z,7.29
2022-10-17T07:27:25.871Z,7.86
2022-10-17T07:28:57.513Z,9.29
2022-10-17T07:30:28.984Z,10.84
2022-10-17T07:32:32.379Z,9.05
2022-10-17T07:34:03.769Z,6.80
2022-10-17T07:35:35.133Z,6.50
2022-10-17T07:37:06.823Z,9.38
2022-10-17T07:38:55.259Z,9.93
2022-10-17T07:40:26.911Z,9.78
2022-10-17T07:42:08.559Z,9.41
2022-10-17T07:43:45.153Z,7.74
2022-10-17T07:45:16.542Z,7.76
2022-10-17T07:46:47.954Z,11.48
2022-10-17T07:48:34.402Z,11.62
2022-10-17T07:50:28.007Z,10.37
2022-10-17T07:51:59.490Z,12.57
2022-10-17T07:53:30.927Z,11.42
2022-10-17T07:55:02.460Z,9.01
2022-10-17T07:56:49.479Z,9.37
2022-10-17T07:58:31.019Z,8.94
2022-10-17T08:00:21.816Z,10.37
2022-10-17T08:01:54.144Z,7.91
2022-10-17T08:03:25.489Z,8.53
2022-10-17T08:04:57.158Z,9.23
2022-10-17T08:06:28.686Z,8.66
2022-10-17T08:08:21.847Z,9.06
2022-10-17T08:09:53.516Z,7.84
2022-10-17T08:11:25.099Z,10.55
2022-10-17T08:13:13.855Z,7.32
2022-10-17T08:14:45.546Z,8.88
2022-10-17T08:16:27.000Z,9.87
2022-10-17T08:17:58.639Z,9.27
2022-10-17T08:19:30.405Z,6.96
2022-10-17T08:21:01.787Z,10.29
2022-10-17T08:22:33.412Z,8.44
2022-10-17T08:24:04.798Z,7.80
2022-10-17T08:25:36.326Z,9.79
2022-10-17T08:27:07.803Z,6.71
2022-10-17T08:28:39.216Z,9.40
2022-10-17T08:30:10.732Z,8.40
2022-10-17T08:31:45.283Z,6.93
2022-10-17T08:33:19.544Z,8.18
2022-10-17T08:34:50.878Z,9.77
2022-10-17T08:36:22.240Z,7.92
2022-10-17T08:37:53.721Z,7.11
2022-10-17T08:39:25.127Z,9.57
2022-10-17T08:40:56.760Z,9.60
2022-10-17T08:42:28.466Z,6.59
2022-10-17T08:43:59.911Z,6.92
2022-10-17T08:45:31.462Z,7.12
2022-10-17T08:47:03.244Z,7.35
2022-10-17T08:48:34.778Z,9.01
2022-10-17T08:50:06.217Z,8.96
2022-10-17T08:51:37.778Z,9.00
2022-10-17T08:53:09.205Z,8.91
2022-10-17T08:54:40.552Z,8.70
2022-10-17T08:56:19.457Z,10.44
2022-10-17T08:57:51.533Z,8.77
2022-10-17T08:59:22.940Z,6.17
2022-10-17T09:00:54.630Z,7.08
2022-10-17T09:02:25.997Z,7.78
2022-10-17T09:03:57.502Z,8.41
2022-10-17T09:05:29.055Z,7.66
2022-10-17T09:07:00.463Z,7.44
2022-10-17T09:08:32.144Z,8.90
2022-10-17T09:10:03.639Z,7.85
2022-10-17T09:11:35.099Z,7.72
2022-10-17T09:13:07.786Z,11.99
2022-10-17T09:14:39.521Z,7.76
2022-10-17T09:16:11.252Z,7.82
2022-10-17T09:17:42.613Z,8.71
2022-10-17T09:19:13.981Z,8.32
2022-10-17T09:20:45.513Z,7.79
2022-10-17T09:22:17.333Z,6.93
2022-10-17T09:23:48.864Z,6.83
2022-10-17T09:25:20.816Z,5.39
2022-10-17T09:26:52.315Z,6.98
2022-10-17T09:28:24.360Z,7.41
2022-10-17T09:29:56.021Z,7.20
2022-10-17T09:31:27.567Z,5.99
2022-10-17T09:32:58.994Z,8.23
2022-10-17T09:34:30.408Z,9.03
2022-10-17T09:36:01.976Z,7.21
2022-10-17T09:37:33.552Z,6.91
2022-10-17T09:39:04.958Z,7.69
2022-10-17T09:40:36.378Z,6.63
2022-10-17T09:42:07.901Z,6.71
2022-10-17T09:43:39.463Z,7.30
2022-10-17T09:45:10.842Z,8.48
2022-10-17T09:46:42.411Z,7.86
2022-10-17T09:48:13.875Z,8.65
2022-10-17T09:49:45.614Z,5.86
2022-10-17T09:51:25.772Z,9.43
2022-10-17T09:52:57.914Z,7.94
2022-10-17T09:54:29.421Z,6.99
2022-10-17T09:56:00.876Z,8.49
2022-10-17T09:57:32.528Z,7.62
2022-10-17T09:59:03.948Z,8.88
2022-10-17T10:00:35.556Z,12.03
2022-10-17T10:02:07.034Z,7.16
2022-10-17T10:03:38.470Z,6.67
2022-10-17T10:05:15.040Z,9.77
2022-10-17T10:06:46.477Z,9.47
2022-10-17T10:08:18.512Z,7.46
2022-10-17T10:09:50.023Z,8.87
2022-10-17T10:11:21.619Z,8.98
2022-10-17T10:12:53.012Z,11.36
2022-10-17T10:14:24.686Z,9.73
2022-10-17T10:15:56.269Z,7.48
2022-10-17T10:17:28.067Z,7.69
2022-10-17T10:18:59.636Z,8.67
2022-10-17T10:20:31.166Z,6.54
2022-10-17T10:22:02.928Z,8.59
2022-10-17T10:23:34.761Z,6.86
2022-10-17T10:25:06.207Z,8.73
2022-10-17T10:26:37.709Z,7.43
2022-10-17T10:28:09.051Z,7.37
2022-10-17T10:29:40.645Z,7.77
2022-10-17T10:31:17.134Z,8.40
2022-10-17T10:32:48.621Z,7.68
2022-10-17T10:34:20.262Z,7.73
2022-10-17T10:35:51.847Z,6.05
2022-10-17T10:37:43.299Z,7.52
2022-10-17T10:39:15.187Z,8.82
2022-10-17T10:40:46.874Z,8.81
2022-10-17T10:42:18.514Z,7.86
2022-10-17T10:43:50.057Z,7.64
2022-10-17T10:45:43.354Z,7.53
2022-10-17T10:47:18.774Z,8.69
2022-10-17T10:48:50.292Z,9.92
2022-10-17T10:50:22.026Z,8.72
2022-10-17T10:51:53.434Z,7.46
2022-10-17T10:53:24.929Z,5.55
2022-10-17T10:54:57.575Z,10.52
2022-10-17T10:56:29.149Z,8.88
2022-10-17T10:58:00.952Z,7.97
2022-10-17T10:59:32.374Z,7.63
2022-10-17T11:01:04.369Z,9.92
2022-10-17T11:02:35.917Z,10.36
2022-10-17T11:04:07.399Z,9.35
2022-10-17T11:05:39.140Z,8.82
2022-10-17T11:07:10.814Z,9.36
2022-10-17T11:08:42.272Z,12.99
2022-10-17T11:10:13.653Z,11.86
2022-10-17T11:11:45.269Z,6.24
2022-10-17T11:13:16.881Z,6.69
2022-10-17T11:14:48.584Z,8.25
2022-10-17T11:16:20.236Z,8.31
2022-10-17T11:17:51.642Z,8.43
2022-10-17T11:19:23.267Z,8.44
2022-10-17T11:20:54.938Z,7.56
2022-10-17T11:22:29.085Z,8.61
2022-10-17T11:24:00.963Z,10.28
2022-10-17T11:25:32.417Z,9.90
2022-10-17T11:27:04.021Z,9.10
2022-10-17T11:28:35.690Z,11.28
2022-10-17T11:30:07.186Z,9.77
2022-10-17T11:31:38.785Z,11.10
2022-10-17T11:33:10.172Z,9.28
2022-10-17T11:34:41.748Z,7.59
2022-10-17T11:36:13.232Z,8.84
2022-10-17T11:37:48.296Z,7.43
2022-10-17T11:39:20.547Z,11.91
2022-10-17T11:40:52.022Z,8.05
2022-10-17T11:42:23.582Z,10.47
2022-10-17T11:43:55.493Z,8.28
2022-10-17T11:45:26.941Z,8.59
2022-10-17T11:46:58.315Z,8.53
2022-10-17T11:48:29.722Z,8.62
2022-10-17T11:51:59.694Z,8.38
2022-10-17T11:53:32.139Z,9.13
2022-10-17T11:55:03.943Z,7.86
2022-10-17T11:56:38.026Z,7.01
2022-10-17T11:58:11.902Z,8.19
2022-10-17T11:59:43.339Z,6.72
2022-10-17T12:01:14.875Z,9.57
2022-10-17T12:02:46.439Z,11.41
2022-10-17T12:04:18.170Z,9.83
2022-10-17T12:05:50.038Z,8.86
2022-10-17T12:07:23.507Z,7.17
2022-10-17T12:08:56.684Z,7.43
2022-10-17T12:10:28.150Z,6.65
2022-10-17T12:11:59.973Z,6.92
2022-10-17T12:13:31.347Z,8.17
2022-10-17T12:15:02.743Z,6.31
2022-10-17T12:16:34.339Z,8.32
2022-10-17T12:18:05.704Z,9.69
2022-10-17T12:19:37.423Z,7.43
2022-10-17T12:21:08.807Z,7.37
2022-10-17T12:22:40.309Z,7.22
2022-10-17T12:24:15.503Z,8.05
2022-10-17T12:25:49.760Z,7.54
2022-10-17T12:27:21.393Z,8.45
2022-10-17T12:28:53.211Z,8.77
2022-10-17T12:30:24.836Z,9.26
2022-10-17T12:31:56.223Z,8.48
2022-10-17T12:33:28.129Z,9.25
2022-10-17T12:34:59.678Z,8.37
2022-10-17T12:36:31.165Z,7.43
2022-10-17T12:38:02.707Z,9.76
2022-10-17T12:39:34.289Z,8.29
2022-10-17T12:41:05.736Z,9.10
2022-10-17T12:42:37.142Z,8.30
2022-10-17T12:44:08.742Z,7.67
2022-10-17T12:45:40.359Z,7.05
2022-10-17T12:47:11.887Z,7.36
2022-10-17T12:48:43.857Z,8.91
2022-10-17T12:50:15.318Z,5.77
2022-10-17T12:51:47.010Z,8.06
2022-10-17T12:53:19.409Z,6.70
2022-10-17T12:55:00.263Z,8.99
2022-10-17T12:56:42.540Z,7.29
2022-10-17T12:58:18.997Z,8.64
2022-10-17T12:59:50.377Z,7.88
2022-10-17T13:01:24.578Z,9.20
2022-10-17T13:02:56.320Z,8.55
2022-10-17T13:04:27.866Z,7.09
2022-10-17T13:05:59.288Z,7.76
2022-10-17T13:07:31.302Z,5.82
2022-10-17T13:09:04.180Z,7.02
2022-10-17T13:10:37.156Z,7.90
2022-10-17T13:12:09.684Z,8.42
2022-10-17T13:13:41.509Z,8.92
2022-10-17T13:15:13.003Z,9.50
2022-10-17T13:16:44.621Z,10.46
2022-10-17T13:18:16.115Z,7.80
2022-10-17T13:19:47.824Z,7.55
2022-10-17T13:21:19.580Z,10.66
2022-10-17T13:22:56.457Z,10.25
2022-10-17T13:24:32.971Z,12.31
2022-10-17T13:26:04.304Z,11.23
2022-10-17T13:27:35.755Z,11.02
2022-10-17T13:29:07.382Z,11.83
2022-10-17T13:30:39.112Z,10.48
2022-10-17T13:32:10.640Z,8.18
2022-10-17T13:33:42.151Z,9.84
2022-10-17T13:35:13.576Z,9.29
2022-10-17T13:36:48.644Z,10.00
2022-10-17T13:38:20.837Z,12.50
2022-10-17T13:39:55.671Z,11.63
2022-10-17T13:41:35.916Z,8.74
2022-10-17T13:43:08.444Z,6.61
2022-10-17T13:44:43.316Z,9.75
2022-10-17T13:46:36.262Z,7.99
2022-10-17T13:48:09.427Z,8.05
2022-10-17T13:49:41.041Z,8.93
2022-10-17T13:51:12.519Z,8.99
2022-10-17T13:52:44.160Z,10.54
2022-10-17T13:54:15.718Z,10.65
2022-10-17T13:55:48.148Z,11.50
2022-10-17T13:57:20.073Z,9.04
2022-10-17T13:58:51.519Z,9.76
2022-10-17T14:00:23.297Z,10.92
2022-10-17T14:01:54.967Z,8.55
2022-10-17T14:04:19.577Z,11.40
2022-10-17T14:05:52.200Z,9.24
2022-10-17T14:07:23.875Z,10.16
2022-10-17T14:08:55.684Z,9.16
2022-10-17T14:10:27.541Z,11.55
2022-10-17T14:11:59.599Z,9.74
2022-10-17T14:13:31.149Z,13.52
2022-10-17T14:15:11.152Z,10.48
2022-10-17T14:16:43.170Z,12.20
2022-10-17T14:18:40.728Z,11.46
2022-10-17T14:21:07.843Z,8.40
2022-10-17T14:23:23.191Z,9.77
2022-10-17T14:24:59.083Z,10.23
2022-10-17T14:26:44.922Z,9.90
2022-10-17T14:28:18.543Z,7.98
2022-10-17T14:29:50.462Z,7.40
2022-10-17T14:31:25.538Z,10.22
2022-10-17T14:32:59.720Z,9.54
2022-10-17T14:37:58.921Z,8.67
2022-10-17T14:39:34.038Z,8.93
2022-10-17T14:41:41.507Z,10.18
2022-10-17T14:44:04.699Z,10.60
2022-10-17T14:45:40.671Z,10.21
2022-10-17T14:47:43.189Z,11.70
2022-10-17T14:49:24.260Z,11.74
2022-10-17T14:51:03.579Z,8.89
2022-10-17T14:52:43.347Z,12.32
2022-10-17T14:54:20.293Z,11.77
2022-10-17T14:56:08.259Z,9.10
2022-10-17T14:57:40.213Z,11.95
2022-10-17T14:59:21.439Z,11.61
2022-10-17T15:00:57.227Z,11.43
2022-10-17T15:02:29.453Z,7.62
2022-10-17T15:04:01.557Z,10.27
2022-10-17T15:05:41.591Z,8.03
2022-10-17T15:07:13.056Z,10.89
2022-10-17T15:08:45.768Z,11.85
2022-10-17T15:10:37.340Z,11.18
2022-10-17T15:12:08.728Z,13.66
2022-10-17T15:13:45.381Z,10.48
2022-10-17T15:15:17.195Z,9.43
2022-10-17T15:16:48.715Z,11.08
2022-10-17T15:18:20.498Z,12.51
2022-10-17T15:19:51.942Z,11.80
2022-10-17T15:21:33.790Z,11.25
2022-10-17T15:23:09.740Z,12.41
2022-10-17T15:24:41.115Z,9.11
2022-10-17T15:26:17.509Z,11.25
2022-10-17T15:27:48.946Z,10.11
2022-10-17T15:29:20.376Z,11.76
2022-10-17T15:30:56.671Z,11.89
2022-10-17T15:32:30.401Z,11.16
2022-10-17T15:34:04.786Z,8.15
2022-10-17T15:35:37.524Z,14.26
2022-10-17T15:37:09.278Z,12.58
2022-10-17T15:38:43.766Z,10.87
2022-10-17T15:40:15.354Z,10.81
2022-10-17T15:41:46.862Z,13.10
2022-10-17T15:43:20.032Z,11.42
2022-10-17T15:44:52.591Z,11.03
2022-10-17T15:46:25.018Z,10.99
2022-10-17T15:47:56.382Z,10.76
2022-10-17T15:49:27.835Z,10.54
2022-10-17T15:51:04.269Z,13.27
2022-10-17T15:52:35.765Z,11.31
2022-10-17T15:54:07.481Z,11.47
2022-10-17T15:55:39.293Z,12.69
2022-10-17T15:57:10.834Z,11.55
2022-10-17T15:58:42.227Z,11.91
2022-10-17T16:00:16.513Z,11.10
2022-10-17T16:01:48.225Z,12.75
2022-10-17T16:03:19.719Z,12.08
2022-10-17T16:04:51.255Z,12.48
2022-10-17T16:06:22.878Z,11.18
2022-10-17T16:07:54.646Z,13.76
2022-10-17T16:09:27.580Z,14.01
2022-10-17T16:11:00.261Z,13.93
2022-10-17T16:12:32.330Z,16.17
2022-10-17T16:14:04.271Z,13.13
2022-10-17T16:15:36.848Z,12.05
2022-10-17T16:17:09.100Z,15.98
2022-10-17T16:18:41.573Z,15.24
2022-10-17T16:20:12.878Z,14.70
2022-10-17T16:21:45.142Z,12.02
2022-10-17T16:23:16.722Z,14.25
2022-10-17T16:24:48.653Z,16.89
2022-10-17T16:26:25.887Z,14.21
2022-10-17T16:27:58.626Z,14.73
2022-10-17T16:29:31.158Z,13.66
2022-10-17T16:31:04.337Z,16.43
2022-10-17T16:32:36.291Z,15.38
2022-10-17T16:34:08.752Z,12.28
2022-10-17T16:35:40.306Z,14.82
2022-10-17T16:37:11.834Z,11.78
2022-10-17T16:38:43.143Z,11.77
2022-10-17T16:40:14.471Z,13.22
2022-10-17T16:41:45.826Z,12.26
2022-10-17T16:43:17.255Z,12.24
2022-10-17T16:44:48.651Z,10.90
2022-10-17T16:46:38.556Z,14.90
2022-10-17T16:48:10.284Z,16.02
2022-10-17T16:49:45.308Z,13.51
2022-10-17T16:51:17.964Z,12.81
2022-10-17T16:52:49.881Z,11.84
2022-10-17T16:54:31.430Z,14.10
2022-10-17T16:56:19.631Z,13.85
2022-10-17T16:57:51.116Z,12.10
2022-10-17T16:59:28.226Z,14.31
2022-10-17T17:00:59.780Z,13.65
2022-10-17T17:02:46.835Z,13.00
2022-10-17T17:04:28.448Z,13.59
2022-10-17T17:06:10.227Z,15.24
2022-10-17T17:08:14.174Z,16.16
2022-10-17T17:10:22.279Z,15.27
2022-10-17T17:12:12.519Z,17.82
2022-10-17T17:13:45.413Z,13.33
2022-10-17T17:15:17.297Z,15.80
2022-10-17T17:17:05.439Z,18.30
2022-10-17T17:18:37.671Z,16.03
2022-10-17T17:20:15.449Z,15.70
2022-10-17T17:24:04.166Z,15.28
2022-10-17T17:25:46.668Z,16.63
2022-10-17T17:27:18.861Z,18.81
2022-10-17T17:28:50.825Z,23.97
2022-10-17T17:30:22.683Z,21.74
2022-10-17T17:31:54.299Z,18.67
2022-10-17T17:33:36.756Z,15.74
2022-10-17T17:35:14.595Z,16.58
2022-10-17T17:37:16.114Z,16.94
2022-10-17T17:39:08.799Z,15.29
2022-10-17T17:40:49.698Z,14.71
2022-10-17T17:42:30.780Z,17.06
2022-10-17T17:44:15.773Z,16.36
2022-10-17T17:45:49.136Z,18.27
2022-10-17T17:47:20.806Z,16.61
2022-10-17T17:48:54.234Z,16.84
2022-10-17T17:50:30.881Z,19.93
2022-10-17T17:53:35.329Z,23.93
2022-10-17T17:55:06.949Z,16.99
2022-10-17T17:56:38.408Z,20.55
2022-10-17T17:58:10.322Z,16.13
2022-10-17T17:59:41.783Z,17.37
2022-10-17T18:01:14.987Z,18.68
2022-10-17T18:02:51.775Z,17.59
2022-10-17T18:04:28.291Z,16.14
2022-10-17T18:06:00.263Z,18.13
2022-10-17T18:07:31.987Z,18.25
2022-10-17T18:09:04.087Z,13.92
2022-10-17T18:10:35.999Z,14.94
2022-10-17T18:12:08.903Z,16.55
2022-10-17T18:13:41.673Z,17.53
2022-10-17T18:15:13.342Z,18.56
2022-10-17T18:16:52.066Z,17.52
2022-10-17T18:18:23.849Z,18.06
2022-10-17T18:19:55.885Z,16.64
2022-10-17T18:21:27.720Z,17.50
2022-10-17T18:23:01.985Z,19.38
2022-10-17T18:24:45.851Z,18.10
2022-10-17T18:26:17.933Z,22.22
2022-10-17T18:27:49.564Z,20.70
2022-10-17T18:29:21.507Z,18.63
2022-10-17T18:30:58.355Z,18.60
2022-10-17T18:32:31.916Z,15.29
2022-10-17T18:34:04.189Z,15.89
2022-10-17T18:35:41.209Z,16.75
2022-10-17T18:37:13.441Z,17.63
2022-10-17T18:38:45.249Z,16.00
2022-10-17T18:40:22.795Z,18.70
2022-10-17T18:42:02.523Z,17.09
2022-10-17T18:43:35.598Z,19.64
2022-10-17T18:45:13.787Z,16.26
2022-10-17T18:48:17.913Z,18.80
2022-10-17T18:49:59.675Z,17.05
2022-10-17T18:51:39.491Z,15.31
2022-10-17T18:53:26.394Z,15.35
2022-10-17T18:54:59.474Z,19.20
2022-10-17T18:56:30.985Z,16.52
2022-10-17T18:58:22.386Z,14.96
2022-10-17T18:59:54.392Z,13.47
2022-10-17T19:01:26.397Z,14.07
2022-10-17T19:03:05.090Z,13.64
2022-10-17T19:04:36.997Z,12.35
2022-10-17T19:06:08.832Z,12.27
2022-10-17T19:07:45.479Z,11.09
2022-10-17T19:09:20.823Z,10.61
2022-10-17T19:10:53.032Z,8.63
2022-10-17T19:12:31.375Z,9.09
2022-10-17T19:14:03.408Z,7.98
2022-10-17T19:15:35.347Z,9.99
2022-10-17T19:17:07.034Z,7.62
2022-10-17T19:18:38.921Z,7.88
2022-10-17T19:20:10.725Z,9.68
2022-10-17T19:21:42.772Z,8.66
2022-10-17T19:23:15.263Z,9.95
2022-10-17T19:24:52.785Z,11.09
2022-10-17T19:26:24.705Z,9.93
2022-10-17T19:28:08.154Z,10.19
2022-10-17T19:29:45.352Z,8.83
2022-10-17T19:31:18.083Z,11.22
2022-10-17T19:32:50.784Z,9.06
2022-10-17T19:34:22.861Z,7.71
2022-10-17T19:35:54.694Z,8.33
2022-10-17T19:37:26.391Z,9.24
2022-10-17T19:38:59.646Z,10.53
2022-10-17T19:40:31.579Z,8.52
2022-10-17T19:42:06.730Z,9.99
2022-10-17T19:43:39.315Z,9.10
2022-10-17T19:45:11.513Z,9.35
2022-10-17T19:46:43.587Z,11.10
2022-10-17T19:48:30.817Z,27.66
2022-10-17T19:51:35.811Z,26.38
2022-10-17T19:53:12.694Z,17.19
2022-10-17T19:54:44.170Z,14.79
2022-10-17T19:56:17.826Z,11.83
2022-10-17T19:57:49.375Z,8.80
2022-10-17T19:59:21.100Z,11.73
2022-10-17T20:00:52.663Z,11.85
2022-10-17T20:02:46.528Z,11.94
2022-10-17T20:04:18.342Z,10.10
2022-10-17T20:06:02.913Z,12.75
2022-10-17T20:07:34.537Z,11.26
2022-10-17T20:09:07.344Z,9.79
2022-10-17T20:10:40.633Z,11.16
2022-10-17T20:12:12.381Z,13.08
2022-10-17T20:13:45.545Z,13.56
2022-10-17T20:15:17.195Z,11.91
2022-10-17T20:16:49.030Z,10.04
2022-10-17T20:18:28.275Z,9.90
2022-10-17T20:20:44.190Z,11.46
2022-10-17T20:22:34.916Z,11.40
2022-10-17T20:24:06.850Z,9.55
2022-10-17T20:25:39.048Z,11.65
2022-10-17T20:27:15.883Z,11.78
2022-10-17T20:28:47.967Z,11.24
2022-10-17T20:30:19.911Z,10.85
2022-10-17T20:31:51.916Z,11.70
2022-10-17T20:33:31.060Z,10.68
2022-10-17T20:35:05.382Z,10.23
2022-10-17T20:36:37.857Z,8.93
2022-10-17T20:38:09.773Z,12.01
2022-10-17T20:39:41.268Z,13.08
2022-10-17T20:41:13.208Z,9.23
2022-10-17T20:43:02.340Z,10.32